LiveATC.Net - Listen to live air traffic control over the Internet!


ICAO: KMDQ  IATA: MDQ   Airport: Huntsville Executive Airport / Tom Sharp Jr Field
City: Huntsville   State/Province: Alabama
Country: United States   Continent: North America
KMDQ METAR Weather: KMDQ 201055Z AUTO 00000KT 10SM CLR 21/21 A3012 RMK A02 T02130205
KMDQ Flight Activity (FlightAware)
KMDQ Airport Info   (iFlightPlanner)
KMDQ VFR Sectional Chart   (iFlightPlanner) 
KMDQ IFR Low Chart   (iFlightPlanner) 

KMDQ CTAF
Feed Status: DOWN
Last heard on: 2019-08-16 03:06:06 (4 days 7 hours 59 minutes ago)
KMDQ CTAF Audio Archives
FacilityFrequency
Huntsville Executive CTAF123.000

NOTICE

Unauthorized use prohibited. See LiveATC.net Terms of Service


Airport/ARTCC Code
Frequency Search
(e.g., 124.400, 128.75)
Site-wide search
 


Browse LiveATC Feeds
Top 50 LiveATC Feeds
LiveATC Feed Map
Bad Weather Areas

LiveATC FAQ
Offer LiveATC feed
Contact LiveATC.net
Press Inquiries

LiveATC on iPhone
LiveATC on Android

Windows Phone
Windows 8/10

LiveATC Mobile
(Mobile browser)

ATC Audio Archives
Interesting Recordings

LiveATC Forums


Home Page
About LiveATC.net
Make a Donation
Terms of Use
Privacy Policy

Canadian Air Freqs

AIRMETs/SIGMETs

FAA Airport Status
Nat'l Airspace Status
Arrival Demand Charts


Server Software By:
Icecast.org
Liquidsoap